Time;durP1;ratioP1;P1;durP2;ratioP2;P2;SDS_P1;SDS_P2;PMS_P1;PMS_P2;Temp;Humidity;BMP_temperature;BMP_pressure;BME280_temperature;BME280_humidity;BME280_pressure;Samples;Min_cycle;Max_cycle;Signal;HPM_P1;HPM_P2
2023/03/19 00:02:08;;;;;;;8.82;6.40;;;3.90;99.90;;;;;;5044165;28;20055;-63
2023/03/19 00:04:34;;;;;;;11.60;7.65;;;3.90;99.90;;;;;;5042717;28;20036;-74
2023/03/19 00:07:00;;;;;;;9.63;6.93;;;4.00;99.90;;;;;;5032481;28;20049;-66
2023/03/19 00:09:26;;;;;;;10.63;6.60;;;4.00;99.90;;;;;;5051953;28;20073;-74
2023/03/19 00:11:52;;;;;;;12.63;8.07;;;4.10;99.90;;;;;;5047222;28;20041;-72
2023/03/19 00:14:18;;;;;;;14.18;8.35;;;4.00;99.90;;;;;;5044117;28;20618;-72
2023/03/19 00:16:43;;;;;;;13.55;8.73;;;4.00;99.90;;;;;;5043721;28;20049;-66
2023/03/19 00:19:09;;;;;;;12.00;8.27;;;4.10;99.90;;;;;;5049809;28;20024;-66
2023/03/19 00:21:35;;;;;;;14.18;8.80;;;4.10;99.90;;;;;;5059149;28;20115;-66
2023/03/19 00:24:01;;;;;;;13.02;7.47;;;4.10;99.90;;;;;;5049254;28;20911;-65
2023/03/19 00:26:32;;;;;;;10.30;6.40;;;4.10;99.90;;;;;;5054806;28;20047;-65
2023/03/19 00:28:58;;;;;;;9.13;6.47;;;3.90;99.90;;;;;;5055613;28;20044;-66
2023/03/19 00:31:25;;;;;;;11.35;6.75;;;3.70;99.90;;;;;;5055784;28;20021;-66
2023/03/19 00:33:50;;;;;;;13.85;8.15;;;3.60;99.90;;;;;;5050324;28;20036;-66
2023/03/19 00:36:17;;;;;;;14.80;9.18;;;3.60;99.90;;;;;;5049405;28;20031;-67
2023/03/19 00:38:43;;;;;;;11.43;7.57;;;3.70;99.90;;;;;;5055037;28;20037;-67
2023/03/19 00:41:09;;;;;;;9.60;6.60;;;3.70;99.90;;;;;;5044029;28;20036;-66
2023/03/19 00:43:36;;;;;;;9.32;6.38;;;3.70;99.90;;;;;;5049762;28;20199;-66
2023/03/19 00:46:02;;;;;;;10.77;6.93;;;3.50;99.90;;;;;;5049525;28;20078;-66
2023/03/19 00:48:28;;;;;;;7.65;6.00;;;3.50;99.90;;;;;;5048028;28;20476;-66
2023/03/19 00:50:53;;;;;;;7.97;5.82;;;3.40;99.90;;;;;;5045309;28;20044;-67
2023/03/19 00:53:20;;;;;;;8.10;5.60;;;3.50;99.90;;;;;;5054428;28;20035;-65
2023/03/19 00:55:46;;;;;;;8.13;5.93;;;3.50;99.90;;;;;;5054023;28;20123;-67
2023/03/19 00:58:13;;;;;;;8.27;5.75;;;3.50;99.90;;;;;;5050525;28;20080;-67
2023/03/19 01:00:39;;;;;;;8.38;5.45;;;3.40;99.90;;;;;;5052329;28;20031;-66
2023/03/19 01:03:05;;;;;;;10.77;5.97;;;3.30;99.90;;;;;;5046730;28;20045;-66
2023/03/19 01:05:33;;;;;;;8.43;6.20;;;3.30;99.90;;;;;;5050409;28;20036;-67
2023/03/19 01:07:58;;;;;;;10.68;6.72;;;3.30;99.90;;;;;;5059410;28;20033;-66
2023/03/19 01:10:24;;;;;;;8.70;6.97;;;3.40;99.90;;;;;;5059064;28;20777;-66
2023/03/19 01:12:50;;;;;;;11.20;6.68;;;3.40;99.90;;;;;;5034430;28;20516;-66
2023/03/19 01:15:16;;;;;;;10.95;7.35;;;3.40;99.90;;;;;;5055663;28;20119;-66
2023/03/19 01:17:42;;;;;;;9.38;6.95;;;3.40;99.90;;;;;;5056262;28;20050;-66
2023/03/19 01:20:12;;;;;;;7.80;6.05;;;3.40;99.90;;;;;;5045351;28;20085;-66
2023/03/19 01:22:40;;;;;;;7.72;5.25;;;3.30;99.90;;;;;;5054401;28;20083;-66
2023/03/19 01:25:06;;;;;;;13.73;7.47;;;3.30;99.90;;;;;;5055236;28;20037;-66
2023/03/19 01:27:32;;;;;;;10.15;7.35;;;3.20;99.90;;;;;;5057810;28;20036;-67
2023/03/19 01:29:57;;;;;;;10.93;7.15;;;3.30;99.90;;;;;;5059647;28;20041;-67
2023/03/19 01:32:23;;;;;;;9.55;7.20;;;3.40;99.90;;;;;;5053824;28;20102;-67
2023/03/19 01:34:48;;;;;;;9.88;5.88;;;3.50;99.90;;;;;;5050656;28;20043;-65
2023/03/19 01:37:14;;;;;;;8.23;5.95;;;3.60;99.90;;;;;;5057517;28;20037;-75
2023/03/19 01:39:40;;;;;;;9.13;6.35;;;3.50;99.90;;;;;;5054730;28;20036;-74
2023/03/19 01:42:06;;;;;;;12.75;8.27;;;3.50;99.90;;;;;;5055413;28;20037;-74
2023/03/19 01:44:35;;;;;;;17.35;10.77;;;3.40;99.90;;;;;;5036975;28;20040;-73
2023/03/19 01:47:04;;;;;;;15.43;9.48;;;3.40;99.90;;;;;;5055375;28;20643;-74
2023/03/19 01:49:30;;;;;;;12.95;7.55;;;3.40;99.90;;;;;;5052853;28;20036;-75
2023/03/19 01:51:59;;;;;;;10.38;7.22;;;3.40;99.90;;;;;;5055158;28;20454;-74
2023/03/19 01:54:27;;;;;;;9.02;6.25;;;3.40;99.90;;;;;;5055609;28;20688;-74
2023/03/19 01:56:59;;;;;;;8.60;6.45;;;3.30;99.90;;;;;;5052362;28;20024;-74
2023/03/19 01:59:30;;;;;;;9.18;6.05;;;3.20;99.90;;;;;;5054901;28;20115;-74
2023/03/19 02:01:58;;;;;;;7.75;5.38;;;3.00;99.90;;;;;;5054014;28;20045;-74
2023/03/19 02:04:28;;;;;;;6.80;5.35;;;3.00;99.90;;;;;;5053509;28;20037;-74
2023/03/19 02:07:00;;;;;;;12.68;5.03;;;2.90;99.90;;;;;;5052868;28;20127;-73
2023/03/19 02:09:28;;;;;;;7.05;4.57;;;2.80;99.90;;;;;;5051692;28;20109;-74
2023/03/19 02:11:54;;;;;;;8.65;5.57;;;2.80;99.90;;;;;;5055185;28;20048;-75
2023/03/19 02:14:20;;;;;;;12.32;7.95;;;2.80;99.90;;;;;;5054632;28;20087;-73
2023/03/19 02:16:46;;;;;;;11.45;7.38;;;2.70;99.90;;;;;;5054425;28;20872;-73
2023/03/19 02:19:21;;;;;;;12.63;6.15;;;2.70;99.90;;;;;;5052661;28;20680;-74
2023/03/19 02:21:47;;;;;;;12.60;7.57;;;2.70;99.90;;;;;;5055357;28;20577;-74
2023/03/19 02:24:21;;;;;;;8.85;6.60;;;2.70;99.90;;;;;;5054855;28;20412;-75
2023/03/19 02:26:49;;;;;;;9.00;7.03;;;2.70;99.90;;;;;;5052803;28;20045;-74
2023/03/19 02:29:15;;;;;;;9.55;5.75;;;2.70;99.90;;;;;;5055637;28;20032;-75
2023/03/19 02:31:41;;;;;;;7.68;5.22;;;2.70;99.90;;;;;;5031274;28;20106;-75
2023/03/19 02:34:27;;;;;;;6.40;5.22;;;2.70;99.90;;;;;;5056814;28;20037;-75
2023/03/19 02:37:01;;;;;;;6.57;5.38;;;2.60;99.90;;;;;;5048458;28;20056;-73
2023/03/19 02:39:35;;;;;;;9.63;6.70;;;2.60;99.90;;;;;;5054429;28;20107;-74
2023/03/19 02:42:02;;;;;;;8.35;6.35;;;2.70;99.90;;;;;;5053709;28;20036;-71
2023/03/19 02:44:28;;;;;;;11.00;5.57;;;2.80;99.90;;;;;;5052626;28;20039;-72
2023/03/19 02:46:53;;;;;;;9.30;5.40;;;2.70;99.90;;;;;;5047860;28;20572;-72
2023/03/19 02:49:19;;;;;;;7.22;5.53;;;2.60;99.90;;;;;;5043139;28;20031;-72
2023/03/19 02:51:44;;;;;;;6.18;4.63;;;2.40;99.90;;;;;;5044381;28;20123;-67
2023/03/19 02:54:10;;;;;;;6.10;4.68;;;2.20;99.90;;;;;;5047655;28;20051;-66
2023/03/19 02:56:36;;;;;;;7.85;4.70;;;2.20;99.90;;;;;;5046352;28;20743;-67
2023/03/19 02:59:02;;;;;;;12.85;5.72;;;2.10;99.90;;;;;;5046406;28;20032;-66
2023/03/19 03:01:28;;;;;;;8.95;5.30;;;2.10;99.90;;;;;;5047396;28;20098;-67
2023/03/19 03:03:54;;;;;;;6.70;5.03;;;2.20;99.90;;;;;;5050238;28;20051;-68
2023/03/19 03:06:20;;;;;;;6.32;5.00;;;2.20;99.90;;;;;;5056500;28;20135;-66
2023/03/19 03:08:46;;;;;;;8.23;6.55;;;2.30;99.90;;;;;;5053804;28;20513;-67
2023/03/19 03:11:11;;;;;;;9.02;6.25;;;2.20;99.90;;;;;;5049319;28;20075;-66
2023/03/19 03:13:37;;;;;;;9.57;6.22;;;2.20;99.90;;;;;;5056621;28;20115;-66
2023/03/19 03:16:02;;;;;;;8.10;5.43;;;2.10;99.90;;;;;;5051941;28;20504;-66
2023/03/19 03:18:28;;;;;;;6.50;4.60;;;2.20;99.90;;;;;;5046964;28;20037;-66
2023/03/19 03:20:54;;;;;;;6.07;4.80;;;2.20;99.90;;;;;;5053233;28;20033;-67
2023/03/19 03:23:20;;;;;;;7.15;5.10;;;2.20;99.90;;;;;;5058146;28;20036;-67
2023/03/19 03:25:51;;;;;;;6.95;4.85;;;2.10;99.90;;;;;;5048785;28;20033;-67
2023/03/19 03:28:17;;;;;;;7.65;5.90;;;2.10;99.90;;;;;;5048306;28;20121;-67
2023/03/19 03:30:43;;;;;;;7.53;5.50;;;2.10;99.90;;;;;;5048612;28;20129;-66
2023/03/19 03:33:09;;;;;;;7.85;6.13;;;2.10;99.90;;;;;;5055272;28;20052;-66
2023/03/19 03:35:35;;;;;;;6.07;5.00;;;2.10;99.90;;;;;;5049990;28;20041;-66
2023/03/19 03:38:02;;;;;;;8.45;5.95;;;2.10;99.90;;;;;;5056086;28;20486;-67
2023/03/19 03:40:28;;;;;;;11.27;6.07;;;2.10;99.90;;;;;;5054629;28;20549;-67
2023/03/19 03:42:54;;;;;;;9.23;6.85;;;2.10;99.90;;;;;;5053281;28;20056;-67
2023/03/19 03:45:19;;;;;;;9.35;6.95;;;2.10;99.90;;;;;;5051618;28;20028;-66
2023/03/19 03:47:46;;;;;;;8.68;6.35;;;2.10;99.90;;;;;;5049263;28;20116;-66
2023/03/19 03:50:12;;;;;;;6.88;5.05;;;2.10;99.90;;;;;;5048837;28;20537;-67
2023/03/19 03:52:38;;;;;;;7.22;5.68;;;2.10;99.90;;;;;;5039077;28;20047;-67
2023/03/19 03:55:04;;;;;;;10.63;7.18;;;2.10;99.90;;;;;;5046039;28;20159;-66
2023/03/19 03:57:30;;;;;;;12.73;8.95;;;2.10;99.90;;;;;;5045674;28;20511;-66
2023/03/19 03:59:56;;;;;;;8.90;7.57;;;2.20;99.90;;;;;;5044514;28;20033;-67
2023/03/19 04:02:22;;;;;;;12.20;8.13;;;2.30;99.90;;;;;;5041655;28;20556;-66
2023/03/19 04:04:47;;;;;;;12.07;8.88;;;2.30;99.90;;;;;;5039200;28;20508;-66
2023/03/19 04:07:13;;;;;;;13.20;9.25;;;2.20;99.90;;;;;;5036768;28;20040;-65
2023/03/19 04:09:40;;;;;;;8.95;6.97;;;2.30;99.90;;;;;;5041373;28;20040;-66
2023/03/19 04:12:05;;;;;;;6.57;5.45;;;2.40;99.90;;;;;;5044278;28;20355;-66
2023/03/19 04:14:31;;;;;;;9.70;6.45;;;2.40;99.90;;;;;;5047172;28;20103;-66
2023/03/19 04:16:57;;;;;;;6.63;5.28;;;2.10;99.90;;;;;;5044473;28;20036;-66
2023/03/19 04:19:22;;;;;;;6.53;4.90;;;2.10;99.90;;;;;;5049868;28;20093;-66
2023/03/19 04:21:48;;;;;;;6.75;4.82;;;2.00;99.90;;;;;;5047183;28;20058;-67
2023/03/19 04:24:14;;;;;;;7.32;5.25;;;1.80;99.90;;;;;;5046045;28;20090;-66
2023/03/19 04:26:40;;;;;;;6.70;5.20;;;1.70;99.90;;;;;;5054760;28;20128;-66
2023/03/19 04:29:07;;;;;;;8.45;6.22;;;1.60;99.90;;;;;;5049992;28;20025;-66
2023/03/19 04:31:33;;;;;;;8.98;7.28;;;1.60;99.90;;;;;;5045716;28;20045;-66
2023/03/19 04:33:59;;;;;;;9.48;6.65;;;1.70;99.90;;;;;;5048198;28;20040;-66
2023/03/19 04:36:25;;;;;;;10.13;7.70;;;1.80;99.90;;;;;;5052627;28;20485;-66
2023/03/19 04:38:51;;;;;;;7.80;5.75;;;1.90;99.90;;;;;;5053032;28;20036;-66
2023/03/19 04:41:17;;;;;;;6.00;4.95;;;1.90;99.90;;;;;;5056459;28;20097;-66
2023/03/19 04:43:42;;;;;;;6.78;4.95;;;1.80;99.90;;;;;;5040173;28;20036;-66
2023/03/19 04:46:08;;;;;;;6.35;4.47;;;1.70;99.90;;;;;;5054858;28;20032;-66
2023/03/19 04:48:34;;;;;;;6.07;4.32;;;1.50;99.90;;;;;;5054432;28;20056;-66
2023/03/19 04:51:02;;;;;;;8.43;6.10;;;1.40;99.90;;;;;;5055068;28;20164;-66
2023/03/19 04:53:28;;;;;;;9.23;6.88;;;1.40;99.90;;;;;;5038695;28;20045;-66
2023/03/19 04:55:54;;;;;;;9.85;6.80;;;1.50;99.90;;;;;;5036705;28;20043;-66
2023/03/19 04:58:20;;;;;;;12.23;7.05;;;1.50;99.90;;;;;;5054901;28;20139;-66
2023/03/19 05:00:46;;;;;;;9.38;5.97;;;1.50;99.90;;;;;;5051937;28;20033;-66
2023/03/19 05:03:13;;;;;;;8.88;6.20;;;1.60;99.90;;;;;;5055340;28;20040;-66
2023/03/19 05:05:39;;;;;;;6.68;5.88;;;1.60;99.90;;;;;;5054931;28;20057;-66
2023/03/19 05:08:06;;;;;;;7.47;6.03;;;1.60;99.90;;;;;;5059001;28;20471;-66
2023/03/19 05:10:32;;;;;;;8.05;5.53;;;1.60;99.90;;;;;;5055944;28;20029;-66
2023/03/19 05:12:58;;;;;;;8.02;5.85;;;1.50;99.90;;;;;;5054996;28;20037;-66
2023/03/19 05:15:24;;;;;;;9.23;6.53;;;1.40;99.90;;;;;;5052434;28;20068;-66
2023/03/19 05:17:50;;;;;;;7.03;5.68;;;1.40;99.90;;;;;;5058457;28;20044;-66
2023/03/19 05:20:15;;;;;;;9.85;6.13;;;1.40;99.90;;;;;;5054880;28;20044;-66
2023/03/19 05:22:41;;;;;;;10.25;6.28;;;1.50;99.90;;;;;;5057663;28;20039;-65
2023/03/19 05:25:07;;;;;;;14.10;8.77;;;1.50;99.90;;;;;;5055072;28;20424;-65
2023/03/19 05:27:33;;;;;;;12.80;8.45;;;1.60;99.90;;;;;;5059610;28;20094;-65
2023/03/19 05:30:00;;;;;;;7.47;6.22;;;1.70;99.90;;;;;;5056606;28;20055;-66
2023/03/19 05:32:26;;;;;;;8.55;6.45;;;1.80;99.90;;;;;;5050539;28;20056;-65
2023/03/19 05:34:51;;;;;;;8.50;6.00;;;1.80;99.90;;;;;;5052731;28;20576;-66
2023/03/19 05:37:17;;;;;;;16.50;10.20;;;1.90;99.90;;;;;;5059732;28;20169;-66
2023/03/19 05:39:43;;;;;;;14.77;8.85;;;2.00;99.90;;;;;;5056537;28;20021;-65
2023/03/19 05:42:08;;;;;;;14.32;9.73;;;2.20;99.90;;;;;;5055848;28;20518;-66
2023/03/19 05:44:34;;;;;;;18.88;12.38;;;2.30;99.90;;;;;;5036549;28;20041;-66
2023/03/19 05:46:59;;;;;;;26.38;15.27;;;2.50;99.90;;;;;;5056475;28;20059;-66
2023/03/19 05:49:25;;;;;;;19.65;13.38;;;2.60;99.90;;;;;;5053443;28;20025;-66
2023/03/19 05:51:51;;;;;;;17.23;10.77;;;2.90;99.90;;;;;;5049620;28;20041;-66
2023/03/19 05:54:17;;;;;;;14.60;10.50;;;3.00;99.90;;;;;;5055388;28;20974;-65
2023/03/19 05:56:42;;;;;;;14.05;8.20;;;3.10;99.90;;;;;;5049490;28;20039;-65
2023/03/19 05:59:08;;;;;;;9.18;6.47;;;3.20;99.90;;;;;;5049980;28;20597;-66
2023/03/19 06:01:34;;;;;;;11.13;7.20;;;3.20;99.90;;;;;;5051548;28;20036;-72
2023/03/19 06:04:00;;;;;;;12.68;8.27;;;3.20;99.90;;;;;;5053641;28;20036;-72
2023/03/19 06:06:25;;;;;;;11.25;8.82;;;3.30;99.90;;;;;;5052673;28;20040;-72
2023/03/19 06:08:52;;;;;;;16.90;11.35;;;3.50;99.90;;;;;;5046314;28;20117;-73
2023/03/19 06:11:17;;;;;;;21.40;13.32;;;3.70;99.90;;;;;;5052262;28;20052;-73
2023/03/19 06:13:44;;;;;;;16.60;11.38;;;4.10;99.90;;;;;;5055145;28;20105;-72
2023/03/19 06:16:10;;;;;;;13.93;10.98;;;4.20;99.90;;;;;;5053983;28;20114;-73
2023/03/19 06:18:37;;;;;;;14.55;9.68;;;4.20;99.90;;;;;;5054168;28;20036;-73
2023/03/19 06:21:03;;;;;;;10.38;8.05;;;4.10;99.90;;;;;;5055035;28;20043;-73
2023/03/19 06:23:29;;;;;;;12.15;8.55;;;4.10;99.90;;;;;;5055214;28;20115;-65
2023/03/19 06:25:55;;;;;;;17.73;8.50;;;4.20;99.90;;;;;;5052194;28;20033;-65
2023/03/19 06:28:21;;;;;;;11.30;8.15;;;4.20;99.90;;;;;;5052394;28;20609;-65
2023/03/19 06:30:46;;;;;;;10.35;7.57;;;4.30;99.90;;;;;;5054725;28;20111;-65
2023/03/19 06:33:13;;;;;;;12.98;9.40;;;4.50;99.90;;;;;;5053097;28;20048;-66
2023/03/19 06:35:39;;;;;;;15.60;10.20;;;4.80;99.90;;;;;;5052285;28;20044;-66
2023/03/19 06:38:06;;;;;;;10.93;7.93;;;5.00;99.90;;;;;;5039696;28;20090;-66
2023/03/19 06:40:32;;;;;;;9.73;7.43;;;5.20;99.90;;;;;;5050059;28;20058;-66
2023/03/19 06:42:58;;;;;;;8.70;7.18;;;5.50;99.90;;;;;;5055408;28;20067;-65
2023/03/19 06:45:24;;;;;;;12.00;7.60;;;5.70;99.90;;;;;;5053559;28;20112;-66
2023/03/19 06:47:50;;;;;;;10.40;7.18;;;5.80;99.90;;;;;;5051363;28;20041;-65
2023/03/19 06:50:16;;;;;;;8.80;6.75;;;5.90;99.90;;;;;;5052654;28;20829;-65
2023/03/19 06:52:42;;;;;;;10.60;7.55;;;6.10;99.90;;;;;;5049277;28;20032;-65
2023/03/19 06:55:08;;;;;;;9.73;7.65;;;6.30;99.90;;;;;;5053115;28;20730;-65
2023/03/19 06:57:35;;;;;;;7.97;7.03;;;6.50;99.90;;;;;;5054601;28;20036;-65
2023/03/19 07:00:01;;;;;;;9.00;7.47;;;6.70;99.90;;;;;;5052257;28;21240;-74
2023/03/19 07:02:26;;;;;;;8.80;7.72;;;6.90;99.90;;;;;;5051849;28;20020;-74
2023/03/19 07:04:52;;;;;;;10.70;7.57;;;7.10;99.90;;;;;;5050359;28;20105;-74
2023/03/19 07:07:18;;;;;;;8.43;7.22;;;7.20;99.90;;;;;;5054018;28;20119;-73
2023/03/19 07:09:44;;;;;;;10.43;7.07;;;7.40;99.90;;;;;;5051087;28;20037;-74
2023/03/19 07:12:10;;;;;;;8.98;7.50;;;7.60;99.90;;;;;;5049131;28;20072;-73
2023/03/19 07:14:36;;;;;;;10.10;7.22;;;7.70;99.90;;;;;;5052470;28;20068;-74
2023/03/19 07:17:01;;;;;;;9.13;6.20;;;7.80;99.90;;;;;;5051270;28;20032;-74
2023/03/19 07:19:27;;;;;;;7.30;6.50;;;8.00;99.90;;;;;;5045595;28;20122;-71
2023/03/19 07:21:52;;;;;;;7.88;5.40;;;8.10;99.90;;;;;;5050479;28;20033;-71
2023/03/19 07:24:18;;;;;;;14.70;6.20;;;8.30;99.90;;;;;;5049968;28;20733;-71
2023/03/19 07:26:45;;;;;;;7.43;6.15;;;8.50;99.90;;;;;;5058356;28;20041;-71
2023/03/19 07:29:11;;;;;;;7.43;5.57;;;8.60;99.90;;;;;;5042202;28;20195;-71
2023/03/19 07:31:36;;;;;;;8.50;6.10;;;8.80;99.90;;;;;;5043660;28;20053;-71
2023/03/19 07:34:02;;;;;;;7.88;5.82;;;9.00;99.90;;;;;;5052728;28;20597;-72
2023/03/19 07:36:28;;;;;;;7.47;5.90;;;9.10;99.90;;;;;;5053883;28;20040;-72
2023/03/19 07:38:54;;;;;;;13.30;5.63;;;9.30;99.90;;;;;;5055027;28;20033;-73
2023/03/19 07:41:20;;;;;;;9.05;5.50;;;9.40;99.90;;;;;;5053130;28;20097;-71
2023/03/19 07:43:45;;;;;;;7.80;5.80;;;9.30;99.90;;;;;;5056717;28;20078;-70
2023/03/19 07:46:11;;;;;;;6.07;5.45;;;9.30;99.90;;;;;;5033638;28;20048;-72
2023/03/19 07:48:37;;;;;;;7.80;5.97;;;9.30;99.90;;;;;;5054845;28;20149;-71
2023/03/19 07:51:02;;;;;;;9.48;5.50;;;9.40;99.90;;;;;;5037596;28;20047;-70
2023/03/19 07:53:28;;;;;;;8.90;5.80;;;9.50;99.90;;;;;;5045620;28;20384;-70
2023/03/19 07:55:54;;;;;;;6.82;5.40;;;9.50;99.90;;;;;;5060743;28;20032;-71
2023/03/19 07:58:20;;;;;;;7.50;5.70;;;9.60;99.90;;;;;;5058588;28;20060;-70
2023/03/19 08:00:46;;;;;;;8.80;5.60;;;9.70;99.90;;;;;;5046287;28;20524;-69
2023/03/19 08:03:12;;;;;;;5.32;4.38;;;9.80;99.90;;;;;;5053837;28;20052;-70
2023/03/19 08:05:37;;;;;;;7.88;5.38;;;10.00;99.90;;;;;;5045797;28;20029;-70
2023/03/19 08:08:03;;;;;;;6.18;3.95;;;10.30;99.90;;;;;;5054574;28;20108;-71
2023/03/19 08:10:29;;;;;;;6.03;4.40;;;10.40;97.30;;;;;;5061767;28;20174;-70
2023/03/19 08:12:54;;;;;;;7.35;5.32;;;10.60;97.00;;;;;;5059067;28;20044;-71
2023/03/19 08:15:21;;;;;;;7.35;4.65;;;10.80;96.00;;;;;;5056760;28;20041;-65
2023/03/19 08:17:47;;;;;;;4.45;3.28;;;10.80;96.70;;;;;;5061744;28;20031;-70
2023/03/19 08:20:18;;;;;;;4.18;2.80;;;10.90;93.70;;;;;;5050666;28;20032;-70
2023/03/19 08:22:49;;;;;;;4.55;3.42;;;11.00;91.90;;;;;;5047035;28;20036;-70
2023/03/19 08:25:14;;;;;;;5.82;3.72;;;11.10;90.80;;;;;;5052868;28;20040;-73
2023/03/19 08:27:40;;;;;;;6.45;3.42;;;11.20;91.80;;;;;;5056331;28;20044;-74
2023/03/19 08:30:07;;;;;;;8.40;3.33;;;11.40;89.10;;;;;;5056878;28;20040;-76
2023/03/19 08:32:33;;;;;;;6.13;3.63;;;11.30;88.30;;;;;;5054933;28;20049;-76
2023/03/19 08:34:59;;;;;;;4.55;3.50;;;11.30;89.30;;;;;;5041270;28;20066;-67
2023/03/19 08:37:25;;;;;;;4.22;3.20;;;11.40;87.10;;;;;;5053169;28;20064;-67
2023/03/19 08:39:51;;;;;;;4.57;3.40;;;11.40;85.10;;;;;;5046638;28;20044;-68
2023/03/19 08:42:18;;;;;;;7.70;4.15;;;11.40;85.20;;;;;;5055751;28;20045;-69
2023/03/19 08:44:44;;;;;;;6.85;3.10;;;11.40;85.30;;;;;;5057415;28;20035;-68
2023/03/19 08:47:10;;;;;;;4.90;3.33;;;11.50;84.30;;;;;;5053612;28;20456;-68
2023/03/19 08:49:36;;;;;;;5.43;3.08;;;11.50;83.30;;;;;;5053091;28;20421;-67
2023/03/19 08:52:01;;;;;;;5.60;3.20;;;11.50;82.60;;;;;;5059920;28;20048;-67
2023/03/19 08:54:27;;;;;;;5.15;3.10;;;11.60;81.50;;;;;;5059191;28;20116;-67
2023/03/19 08:56:53;;;;;;;3.38;3.00;;;11.60;79.60;;;;;;5057507;28;20592;-67
2023/03/19 08:59:19;;;;;;;8.18;3.33;;;11.50;80.70;;;;;;5054750;28;20033;-67
2023/03/19 09:01:45;;;;;;;3.75;2.67;;;11.60;80.50;;;;;;5049729;28;20043;-67
2023/03/19 09:04:10;;;;;;;4.50;2.90;;;11.70;80.60;;;;;;5052501;28;20051;-65
2023/03/19 09:06:36;;;;;;;4.70;3.00;;;11.70;79.40;;;;;;5054411;28;20077;-66
2023/03/19 09:09:02;;;;;;;4.68;3.05;;;11.80;78.40;;;;;;5053606;28;20139;-66
2023/03/19 09:11:28;;;;;;;4.25;3.53;;;11.80;78.50;;;;;;5048989;28;20064;-66
2023/03/19 09:13:54;;;;;;;3.92;2.72;;;11.90;78.00;;;;;;5053481;28;20068;-66
2023/03/19 09:16:20;;;;;;;7.22;3.35;;;12.00;78.20;;;;;;5053870;28;20142;-66
2023/03/19 09:18:45;;;;;;;4.75;2.70;;;12.00;74.90;;;;;;5045782;28;20029;-66
2023/03/19 09:21:11;;;;;;;4.60;2.60;;;12.10;75.40;;;;;;5041562;28;20032;-66
2023/03/19 09:23:36;;;;;;;2.80;2.20;;;12.10;75.10;;;;;;5055930;28;20134;-68
2023/03/19 09:26:02;;;;;;;3.38;2.63;;;12.20;73.80;;;;;;5057485;28;20032;-66
2023/03/19 09:28:28;;;;;;;4.03;3.10;;;12.20;71.40;;;;;;5060373;28;20043;-67
2023/03/19 09:30:53;;;;;;;5.05;2.60;;;12.10;73.30;;;;;;5056588;28;20036;-68
2023/03/19 09:33:20;;;;;;;7.05;2.33;;;12.20;71.00;;;;;;5052417;28;20400;-75
2023/03/19 09:35:51;;;;;;;3.75;2.63;;;12.30;70.50;;;;;;5052880;28;20253;-75
2023/03/19 09:38:17;;;;;;;4.05;3.20;;;12.30;70.30;;;;;;5057244;28;20029;-75
2023/03/19 09:40:47;;;;;;;2.92;2.05;;;12.40;71.70;;;;;;5056103;28;20094;-73
2023/03/19 09:43:44;;;;;;;3.97;2.65;;;12.50;69.10;;;;;;5055378;28;20044;-77
2023/03/19 09:46:17;;;;;;;5.18;2.90;;;12.50;69.40;;;;;;5047243;28;20501;-78
2023/03/19 09:48:54;;;;;;;5.38;3.33;;;12.60;68.30;;;;;;5052976;28;20036;-76
2023/03/19 09:51:39;;;;;;;5.97;2.80;;;12.50;69.10;;;;;;5052225;28;20044;-81
2023/03/19 09:54:21;;;;;;;5.90;2.42;;;12.60;69.70;;;;;;5050165;28;20409;-75
2023/03/19 09:56:47;;;;;;;4.20;2.37;;;12.80;68.80;;;;;;5058194;28;20043;-77
2023/03/19 09:59:13;;;;;;;3.38;2.13;;;13.00;69.90;;;;;;5054686;28;20286;-76
2023/03/19 10:01:44;;;;;;;5.60;2.75;;;13.10;69.00;;;;;;5054478;28;20035;-78
2023/03/19 10:04:31;;;;;;;9.33;3.03;;;13.30;67.40;;;;;;5048158;28;20389;-76
2023/03/19 10:07:22;;;;;;;3.67;2.58;;;13.30;65.30;;;;;;5028300;28;20102;-76
2023/03/19 10:10:12;;;;;;;3.45;2.72;;;13.40;65.40;;;;;;5039752;28;20040;-66
2023/03/19 10:12:53;;;;;;;2.83;2.35;;;13.40;63.60;;;;;;5044151;28;20173;-67
2023/03/19 10:15:33;;;;;;;4.30;2.60;;;13.40;62.10;;;;;;5031960;28;20085;-67
2023/03/19 10:18:14;;;;;;;4.57;2.38;;;13.40;63.70;;;;;;5045219;28;20109;-67
2023/03/19 10:20:46;;;;;;;2.88;2.33;;;13.40;62.40;;;;;;5019608;28;20064;-67
2023/03/19 10:23:37;;;;;;;7.65;4.30;;;13.40;61.50;;;;;;5037196;28;20037;-66
2023/03/19 10:26:07;;;;;;;6.47;3.92;;;13.40;63.70;;;;;;5033789;28;20043;-66
2023/03/19 10:28:33;;;;;;;4.00;3.00;;;13.60;63.70;;;;;;5045629;28;20078;-66
2023/03/19 10:31:24;;;;;;;4.47;2.58;;;13.80;64.60;;;;;;5038210;28;21811;-66
2023/03/19 10:34:04;;;;;;;7.10;2.97;;;13.80;60.90;;;;;;5032485;28;20688;-67
2023/03/19 10:36:34;;;;;;;4.55;2.50;;;13.70;61.10;;;;;;5052194;28;20885;-66
2023/03/19 10:39:03;;;;;;;3.58;2.88;;;13.70;60.40;;;;;;5033671;28;20044;-66
2023/03/19 10:41:44;;;;;;;3.22;2.60;;;13.60;62.90;;;;;;5046145;28;20040;-67
2023/03/19 10:44:26;;;;;;;3.28;2.83;;;13.70;61.10;;;;;;5045476;28;20039;-66
2023/03/19 10:46:51;;;;;;;4.30;2.67;;;13.80;61.10;;;;;;5046325;28;20106;-67
2023/03/19 10:49:17;;;;;;;4.35;3.10;;;13.90;61.80;;;;;;5034516;28;20704;-66
2023/03/19 10:51:46;;;;;;;3.33;2.95;;;14.10;61.10;;;;;;5046104;28;20093;-67
2023/03/19 10:54:18;;;;;;;5.28;3.50;;;14.00;60.30;;;;;;5051953;28;20044;-67
2023/03/19 10:56:49;;;;;;;4.70;3.60;;;14.00;61.10;;;;;;5042471;28;20047;-68
2023/03/19 10:59:30;;;;;;;4.50;2.80;;;14.10;60.90;;;;;;5051821;28;20043;-67
2023/03/19 11:02:18;;;;;;;4.80;3.42;;;14.10;62.30;;;;;;5052023;28;20041;-68
2023/03/19 11:04:45;;;;;;;4.75;2.90;;;14.20;60.70;;;;;;5049552;28;20032;-64
2023/03/19 11:07:21;;;;;;;4.50;2.97;;;14.30;62.70;;;;;;5038256;28;20726;-67
2023/03/19 11:09:49;;;;;;;4.22;3.00;;;14.40;61.50;;;;;;5045540;28;20037;-66
2023/03/19 11:12:25;;;;;;;3.58;3.03;;;14.30;60.30;;;;;;5032395;28;20052;-67
2023/03/19 11:14:53;;;;;;;5.50;3.60;;;14.20;60.80;;;;;;5035764;28;20059;-68
2023/03/19 11:17:49;;;;;;;4.53;3.42;;;14.20;62.20;;;;;;5043882;28;20503;-70
2023/03/19 11:20:20;;;;;;;4.50;3.33;;;14.40;61.50;;;;;;5035672;28;20044;-68
2023/03/19 11:22:48;;;;;;;4.70;3.50;;;14.50;61.00;;;;;;5021119;28;20524;-68
2023/03/19 11:25:18;;;;;;;4.28;3.22;;;14.60;61.30;;;;;;5047491;28;20051;-67
2023/03/19 11:27:56;;;;;;;3.90;3.35;;;14.80;62.40;;;;;;5033662;28;20045;-68
2023/03/19 11:30:21;;;;;;;4.55;3.25;;;14.90;60.00;;;;;;5049394;28;20078;-69
2023/03/19 11:33:09;;;;;;;4.78;2.95;;;14.90;58.60;;;;;;5047938;28;20519;-67
2023/03/19 11:35:41;;;;;;;5.03;3.35;;;14.60;59.00;;;;;;5047391;28;20040;-68
2023/03/19 11:38:17;;;;;;;5.05;3.38;;;14.40;58.90;;;;;;5057690;28;20036;-68
2023/03/19 11:40:54;;;;;;;4.38;3.28;;;14.50;60.00;;;;;;5049044;28;20020;-68
2023/03/19 11:43:39;;;;;;;6.32;3.67;;;14.60;59.40;;;;;;5052483;28;20045;-67
2023/03/19 11:46:37;;;;;;;4.43;3.92;;;14.80;59.30;;;;;;5054415;28;20820;-66
2023/03/19 11:49:18;;;;;;;8.32;4.72;;;14.80;58.50;;;;;;5001610;28;20051;-65
2023/03/19 11:51:58;;;;;;;5.55;3.60;;;14.90;59.10;;;;;;5047413;28;20048;-66
2023/03/19 11:55:08;;;;;;;5.13;3.53;;;14.90;59.70;;;;;;5047863;28;20048;-66
2023/03/19 11:58:02;;;;;;;4.13;3.10;;;15.10;58.80;;;;;;5048529;28;20059;-65
2023/03/19 12:00:41;;;;;;;4.60;3.38;;;15.10;58.00;;;;;;5048968;28;20048;-67
2023/03/19 12:03:44;;;;;;;6.00;3.53;;;15.20;58.20;;;;;;5055668;28;20129;-65
2023/03/19 12:06:42;;;;;;;7.13;3.03;;;15.30;58.10;;;;;;5053979;28;21377;-66
2023/03/19 12:09:15;;;;;;;4.43;3.47;;;15.30;56.80;;;;;;5036331;28;20492;-66
2023/03/19 12:12:04;;;;;;;3.00;2.67;;;15.20;57.70;;;;;;5039987;28;20464;-66
2023/03/19 12:14:38;;;;;;;6.40;3.35;;;15.20;56.70;;;;;;5046283;28;20033;-66
2023/03/19 12:17:32;;;;;;;3.67;3.15;;;15.20;57.70;;;;;;5042187;28;20025;-66
2023/03/19 12:19:58;;;;;;;8.77;3.25;;;15.40;57.50;;;;;;5054188;28;20044;-66
2023/03/19 12:22:45;;;;;;;6.00;3.90;;;15.60;56.90;;;;;;5044409;28;20037;-72
2023/03/19 12:25:34;;;;;;;8.20;4.13;;;15.60;55.90;;;;;;5046575;28;20032;-70
2023/03/19 12:28:23;;;;;;;4.35;3.67;;;15.80;58.10;;;;;;5041493;28;20083;-66
2023/03/19 12:31:26;;;;;;;3.67;3.17;;;16.00;55.50;;;;;;5054359;28;20032;-66
2023/03/19 12:34:16;;;;;;;4.13;3.13;;;15.80;54.40;;;;;;5036723;28;20583;-67
2023/03/19 12:36:54;;;;;;;3.47;3.17;;;15.60;55.50;;;;;;5059054;28;20447;-66
2023/03/19 12:39:31;;;;;;;4.15;3.28;;;15.50;55.80;;;;;;5030367;28;20037;-66
2023/03/19 12:41:58;;;;;;;10.27;6.28;;;15.60;55.30;;;;;;5052281;28;20021;-67
2023/03/19 12:44:53;;;;;;;5.07;3.20;;;15.60;55.50;;;;;;5053589;28;20044;-67
2023/03/19 12:47:31;;;;;;;5.82;4.13;;;15.60;54.90;;;;;;5048029;28;20121;-67
2023/03/19 12:50:08;;;;;;;10.60;5.45;;;15.50;55.70;;;;;;5051436;28;20521;-67
2023/03/19 12:52:42;;;;;;;6.15;4.07;;;15.50;56.00;;;;;;5055866;28;20044;-66
2023/03/19 12:55:11;;;;;;;24.92;12.75;;;15.40;55.70;;;;;;5054247;28;20028;-66
2023/03/19 12:57:47;;;;;;;7.97;5.85;;;15.40;55.70;;;;;;5053434;28;20033;-66
2023/03/19 13:00:31;;;;;;;6.80;4.00;;;15.40;56.50;;;;;;5050432;28;20041;-66
2023/03/19 13:03:34;;;;;;;6.40;5.18;;;15.50;56.10;;;;;;5043402;28;20032;-66